createdAt,value
2017-12-21T00:02:07.371Z,77.62
2017-12-21T00:04:41.989Z,77.88
2017-12-21T00:07:16.376Z,78.11
2017-12-21T00:09:50.806Z,78.17
2017-12-21T00:12:25.250Z,78.09
2017-12-21T00:14:59.778Z,78.10
2017-12-21T00:17:33.927Z,78.58
2017-12-21T00:20:13.146Z,78.58
2017-12-21T00:22:47.777Z,78.58
2017-12-21T00:25:22.298Z,78.19
2017-12-21T00:27:57.546Z,77.87
2017-12-21T00:30:32.122Z,77.79
2017-12-21T00:33:06.688Z,77.81
2017-12-21T00:35:41.323Z,77.43
2017-12-21T00:38:15.821Z,77.25
2017-12-21T00:40:50.215Z,77.06
2017-12-21T00:43:24.978Z,76.94
2017-12-21T00:46:11.849Z,76.79
2017-12-21T00:48:46.310Z,76.60
2017-12-21T00:51:20.752Z,76.18
2017-12-21T00:53:55.166Z,76.08
2017-12-21T00:56:29.565Z,75.51
2017-12-21T00:59:04.068Z,74.80
2017-12-21T01:01:38.430Z,74.47
2017-12-21T01:04:12.947Z,74.14
2017-12-21T01:06:47.308Z,73.85
2017-12-21T01:09:21.817Z,73.58
2017-12-21T01:11:56.203Z,73.22
2017-12-21T01:14:30.773Z,72.33
2017-12-21T01:17:05.193Z,71.72
2017-12-21T01:19:39.694Z,71.37
2017-12-21T01:22:14.135Z,70.23
2017-12-21T01:24:48.518Z,69.61
2017-12-21T01:27:22.901Z,68.76
2017-12-21T01:29:57.457Z,68.53
2017-12-21T01:32:32.512Z,68.30
2017-12-21T01:35:12.167Z,67.47
2017-12-21T01:37:46.553Z,67.17
2017-12-21T01:40:20.568Z,66.55
2017-12-21T01:42:56.899Z,65.68
2017-12-21T01:45:32.204Z,65.68
2017-12-21T01:48:06.696Z,65.45
2017-12-21T01:50:41.084Z,65.06
2017-12-21T01:53:15.678Z,64.91
2017-12-21T01:55:50.201Z,64.73
2017-12-21T01:58:24.931Z,64.49
2017-12-21T02:00:59.455Z,64.26
2017-12-21T02:03:33.998Z,64.28
2017-12-21T02:06:08.113Z,63.90
2017-12-21T02:08:42.665Z,64.28
2017-12-21T02:11:17.035Z,63.99
2017-12-21T02:13:51.596Z,63.84
2017-12-21T02:16:26.086Z,63.86
2017-12-21T02:19:00.481Z,64.14
2017-12-21T02:21:34.412Z,64.58
2017-12-21T02:24:08.437Z,64.94
2017-12-21T02:26:42.594Z,65.32
2017-12-21T02:29:17.006Z,65.61
2017-12-21T02:31:51.090Z,65.81
2017-12-21T02:34:25.346Z,65.92
2017-12-21T02:36:59.391Z,66.13
2017-12-21T02:39:33.558Z,66.56
2017-12-21T02:42:08.297Z,66.68
2017-12-21T02:44:42.972Z,66.76
2017-12-21T02:47:17.046Z,66.36
2017-12-21T02:49:51.205Z,66.72
2017-12-21T02:52:25.643Z,66.68
2017-12-21T02:54:59.668Z,67.46
2017-12-21T02:57:33.806Z,67.94
2017-12-21T03:00:14.366Z,68.13
2017-12-21T03:02:48.822Z,67.63
2017-12-21T03:05:22.938Z,67.82
2017-12-21T03:07:57.437Z,68.10
2017-12-21T03:10:31.615Z,68.35
2017-12-21T03:13:05.818Z,68.46
2017-12-21T03:15:39.683Z,68.80
2017-12-21T03:18:14.262Z,69.54
2017-12-21T03:20:48.322Z,69.53
2017-12-21T03:23:22.834Z,69.85
2017-12-21T03:25:57.282Z,70.07
2017-12-21T03:28:31.839Z,70.50
2017-12-21T03:31:07.358Z,71.10
2017-12-21T03:33:41.730Z,71.49
2017-12-21T03:36:16.195Z,72.11
2017-12-21T03:38:50.571Z,72.50
2017-12-21T03:41:24.991Z,73.32
2017-12-21T03:43:59.494Z,73.91
2017-12-21T03:46:33.638Z,73.93
2017-12-21T03:49:08.105Z,74.11
2017-12-21T03:51:42.318Z,74.21
2017-12-21T03:54:17.681Z,74.52
2017-12-21T03:56:52.464Z,74.64
2017-12-21T03:59:26.921Z,74.79
2017-12-21T04:02:01.366Z,74.86
2017-12-21T04:04:36.733Z,74.85
2017-12-21T04:07:11.286Z,75.09
2017-12-21T04:09:45.785Z,75.47
2017-12-21T04:12:20.965Z,75.80
2017-12-21T04:14:55.536Z,75.98
2017-12-21T04:17:30.011Z,75.91
2017-12-21T04:20:06.193Z,75.86
2017-12-21T04:22:40.622Z,75.80
2017-12-21T04:25:15.457Z,75.97
2017-12-21T04:27:49.586Z,75.91
2017-12-21T04:30:24.062Z,75.90
2017-12-21T04:32:58.554Z,75.77
2017-12-21T04:35:33.038Z,75.61
2017-12-21T04:38:08.517Z,76.05
2017-12-21T04:40:43.085Z,76.41
2017-12-21T04:43:17.674Z,77.14
2017-12-21T04:45:52.118Z,77.42
2017-12-21T04:48:26.485Z,77.73
2017-12-21T04:51:00.977Z,77.62
2017-12-21T04:53:35.427Z,77.32
2017-12-21T04:56:09.877Z,77.42
2017-12-21T04:58:44.382Z,77.21
2017-12-21T05:01:19.634Z,76.91
2017-12-21T05:03:55.031Z,76.69
2017-12-21T05:06:29.521Z,76.39
2017-12-21T05:09:03.437Z,76.02
2017-12-21T05:11:37.877Z,75.70
2017-12-21T05:14:12.297Z,75.64
2017-12-21T05:16:47.817Z,75.64
2017-12-21T05:19:22.481Z,75.73
2017-12-21T05:21:56.918Z,75.81
2017-12-21T05:24:31.480Z,75.83
2017-12-21T05:27:05.872Z,75.85
2017-12-21T05:29:40.363Z,76.00
2017-12-21T05:32:14.806Z,75.72
2017-12-21T05:34:49.414Z,75.37
2017-12-21T05:37:23.491Z,75.43
2017-12-21T05:39:58.293Z,75.50
2017-12-21T05:42:32.908Z,75.79
2017-12-21T05:45:07.335Z,75.99
2017-12-21T05:47:41.861Z,75.88
2017-12-21T05:50:16.283Z,75.54
2017-12-21T05:52:50.686Z,75.52
2017-12-21T05:55:25.062Z,75.68
2017-12-21T05:57:59.158Z,75.81
2017-12-21T06:00:33.850Z,75.87
2017-12-21T06:03:09.249Z,75.95
2017-12-21T06:05:43.806Z,75.90
2017-12-21T06:08:18.292Z,75.87
2017-12-21T06:10:52.784Z,75.73
2017-12-21T06:13:27.225Z,75.72
2017-12-21T06:16:01.694Z,75.56
2017-12-21T06:18:36.202Z,75.35
2017-12-21T06:21:10.590Z,75.17
2017-12-21T06:23:45.265Z,75.12
2017-12-21T06:26:19.775Z,75.00
2017-12-21T06:28:54.185Z,74.85
2017-12-21T06:31:28.551Z,74.77
2017-12-21T06:34:03.106Z,74.67
2017-12-21T06:36:37.522Z,74.57
2017-12-21T06:39:12.055Z,74.73
2017-12-21T06:41:46.494Z,75.17
2017-12-21T06:44:21.086Z,75.42
2017-12-21T06:46:55.557Z,76.29
2017-12-21T06:49:30.001Z,76.00
2017-12-21T06:52:04.361Z,76.25
2017-12-21T06:54:38.762Z,75.69
2017-12-21T06:57:13.294Z,75.54
2017-12-21T06:59:47.901Z,75.11
2017-12-21T07:02:22.353Z,74.80
2017-12-21T07:04:57.020Z,74.59
2017-12-21T07:07:32.350Z,74.33
2017-12-21T07:10:07.322Z,74.16
2017-12-21T07:12:41.878Z,73.89
2017-12-21T07:15:16.357Z,73.91
2017-12-21T07:17:50.875Z,73.74
2017-12-21T07:20:25.234Z,73.80
2017-12-21T07:22:59.766Z,73.95
2017-12-21T07:25:34.193Z,73.99
2017-12-21T07:28:08.744Z,73.82
2017-12-21T07:30:43.422Z,73.67
2017-12-21T07:33:17.939Z,73.75
2017-12-21T07:35:52.294Z,73.69
2017-12-21T07:38:26.686Z,73.61
2017-12-21T07:41:02.092Z,73.72
2017-12-21T07:43:36.658Z,73.67
2017-12-21T07:46:11.138Z,73.63
2017-12-21T07:48:45.768Z,73.58
2017-12-21T07:51:20.439Z,73.19
2017-12-21T07:53:54.943Z,73.26
2017-12-21T07:56:29.324Z,72.81
2017-12-21T07:59:03.802Z,72.65
2017-12-21T08:01:39.245Z,72.53
2017-12-21T08:04:13.756Z,72.41
2017-12-21T08:06:48.241Z,72.28
2017-12-21T08:09:22.747Z,72.16
2017-12-21T08:11:57.160Z,72.01
2017-12-21T08:14:31.591Z,71.96
2017-12-21T08:17:06.018Z,71.70
2017-12-21T08:19:40.530Z,71.66
2017-12-21T08:22:14.929Z,71.66
2017-12-21T08:24:50.054Z,71.76
2017-12-21T08:27:24.642Z,71.78
2017-12-21T08:29:59.201Z,71.97
2017-12-21T08:32:33.846Z,72.26
2017-12-21T08:35:08.736Z,72.55
2017-12-21T08:37:43.226Z,73.08
2017-12-21T08:40:17.647Z,73.58
2017-12-21T08:42:52.387Z,73.68
2017-12-21T08:45:26.891Z,74.36
2017-12-21T08:48:01.621Z,74.85
2017-12-21T08:50:36.318Z,75.67
2017-12-21T08:53:11.693Z,76.03
2017-12-21T08:55:46.087Z,77.27
2017-12-21T08:58:20.674Z,78.12
2017-12-21T09:00:55.114Z,78.46
2017-12-21T09:03:29.640Z,78.76
2017-12-21T09:06:04.153Z,78.50
2017-12-21T09:08:38.598Z,78.94
2017-12-21T09:11:14.030Z,79.21
2017-12-21T09:13:48.479Z,79.53
2017-12-21T09:16:23.691Z,80.14
2017-12-21T09:18:58.273Z,80.66
2017-12-21T09:21:32.709Z,81.77
2017-12-21T09:24:08.163Z,82.04
2017-12-21T09:26:43.126Z,83.11
2017-12-21T09:29:17.578Z,83.30
2017-12-21T09:31:52.300Z,83.28
2017-12-21T09:34:28.636Z,84.79
2017-12-21T09:37:03.166Z,84.10
2017-12-21T09:39:37.736Z,84.17
2017-12-21T09:42:13.114Z,85.09
2017-12-21T09:44:47.770Z,85.17
2017-12-21T09:47:22.242Z,85.25
2017-12-21T09:49:56.844Z,84.95
2017-12-21T09:52:31.454Z,85.84
2017-12-21T09:55:09.960Z,84.82
2017-12-21T09:57:44.484Z,84.97
2017-12-21T10:00:18.907Z,84.23
2017-12-21T10:02:54.346Z,84.56
2017-12-21T10:05:28.889Z,84.22
2017-12-21T10:08:04.064Z,84.61
2017-12-21T10:10:38.555Z,84.60
2017-12-21T10:13:13.089Z,84.61
2017-12-21T10:15:47.563Z,84.57
2017-12-21T10:18:22.173Z,84.32
2017-12-21T10:20:57.506Z,83.76
2017-12-21T10:23:32.079Z,84.38
2017-12-21T10:26:06.472Z,84.17
2017-12-21T10:28:40.987Z,84.45
2017-12-21T10:31:15.436Z,83.98
2017-12-21T10:33:50.593Z,83.71
2017-12-21T10:36:25.227Z,82.95
2017-12-21T10:38:59.826Z,83.37
2017-12-21T10:41:34.490Z,83.58
2017-12-21T10:44:08.988Z,84.20
2017-12-21T10:46:43.430Z,83.98
2017-12-21T10:49:17.932Z,83.90
2017-12-21T10:51:52.515Z,84.27
2017-12-21T10:54:27.031Z,83.87
2017-12-21T10:57:01.474Z,83.49
2017-12-21T10:59:35.995Z,84.01
2017-12-21T11:02:10.406Z,83.07
2017-12-21T11:04:45.435Z,83.02
2017-12-21T11:07:20.006Z,82.76
2017-12-21T11:09:54.562Z,82.88
2017-12-21T11:12:28.933Z,82.68
2017-12-21T11:15:03.566Z,83.28
2017-12-21T11:17:38.182Z,83.38
2017-12-21T11:20:12.583Z,82.97
2017-12-21T11:22:47.115Z,82.35
2017-12-21T11:25:21.821Z,82.88
2017-12-21T11:27:56.273Z,82.42
2017-12-21T11:30:30.665Z,82.22
2017-12-21T11:33:05.669Z,82.08
2017-12-21T11:35:40.174Z,82.30
2017-12-21T11:38:14.398Z,81.58
2017-12-21T11:40:49.030Z,81.82
2017-12-21T11:43:23.615Z,81.63
2017-12-21T11:45:58.062Z,80.78
2017-12-21T11:48:32.578Z,81.09
2017-12-21T11:51:06.945Z,80.98
2017-12-21T11:53:41.487Z,80.25
2017-12-21T11:56:15.678Z,81.02
2017-12-21T11:58:50.234Z,80.68
2017-12-21T12:01:24.654Z,81.17
2017-12-21T12:03:59.429Z,81.43
2017-12-21T12:06:33.971Z,82.11
2017-12-21T12:09:08.445Z,82.98
2017-12-21T12:11:42.878Z,83.07
2017-12-21T12:14:17.356Z,83.04
2017-12-21T12:16:51.771Z,82.71
2017-12-21T12:19:26.190Z,82.19
2017-12-21T12:22:00.551Z,82.52
2017-12-21T12:24:35.094Z,83.04
2017-12-21T12:27:09.558Z,82.40
2017-12-21T12:29:44.122Z,81.98
2017-12-21T12:32:18.500Z,81.50
2017-12-21T12:34:52.974Z,81.44
2017-12-21T12:37:27.909Z,81.26
2017-12-21T12:40:03.431Z,80.94
2017-12-21T12:42:38.990Z,81.19
2017-12-21T12:45:13.602Z,81.11
2017-12-21T12:47:48.138Z,81.03
2017-12-21T12:50:22.601Z,80.97
2017-12-21T12:52:57.118Z,81.11
2017-12-21T12:55:31.583Z,81.52
2017-12-21T12:58:06.078Z,81.33
2017-12-21T13:00:40.544Z,82.25
2017-12-21T13:03:15.597Z,82.05
2017-12-21T13:05:49.979Z,82.84
2017-12-21T13:08:24.530Z,82.76
2017-12-21T13:10:58.953Z,83.36
2017-12-21T13:13:33.444Z,83.64
2017-12-21T13:16:07.818Z,84.14
2017-12-21T13:18:42.334Z,84.54
2017-12-21T13:21:17.035Z,84.69
2017-12-21T13:23:51.414Z,84.19
2017-12-21T13:26:25.833Z,84.79
2017-12-21T13:29:00.321Z,83.90
2017-12-21T13:31:34.715Z,84.41
2017-12-21T13:34:09.273Z,84.39
2017-12-21T13:36:43.638Z,84.60
2017-12-21T13:39:18.211Z,84.30
2017-12-21T13:41:52.582Z,84.11
2017-12-21T13:44:27.123Z,83.94
2017-12-21T13:47:01.629Z,83.70
2017-12-21T13:49:36.605Z,83.66
2017-12-21T13:52:11.144Z,84.25
2017-12-21T13:54:46.375Z,84.02
2017-12-21T13:57:20.634Z,83.40
2017-12-21T13:59:55.151Z,84.24
2017-12-21T14:02:29.274Z,84.00
2017-12-21T14:05:03.723Z,84.59
2017-12-21T14:07:38.072Z,84.75
2017-12-21T14:10:12.485Z,84.04
2017-12-21T14:12:47.333Z,84.78
2017-12-21T14:15:21.724Z,84.83
2017-12-21T14:17:56.191Z,85.26
2017-12-21T14:20:30.647Z,85.70
2017-12-21T14:23:05.150Z,86.18
2017-12-21T14:25:39.798Z,85.86
2017-12-21T14:28:13.942Z,86.37
2017-12-21T14:30:49.274Z,86.17
2017-12-21T14:33:23.846Z,85.98
2017-12-21T14:35:58.314Z,86.74
2017-12-21T14:38:32.801Z,87.01
2017-12-21T14:41:07.491Z,86.40
2017-12-21T14:43:42.765Z,86.65
2017-12-21T14:46:17.344Z,86.73
2017-12-21T14:48:51.866Z,86.41
2017-12-21T14:51:26.241Z,87.09
2017-12-21T14:54:00.819Z,87.84
2017-12-21T14:56:35.209Z,87.57
2017-12-21T14:59:09.763Z,87.65
2017-12-21T15:01:44.191Z,87.17
2017-12-21T15:04:18.602Z,86.88
2017-12-21T15:06:53.018Z,86.02
2017-12-21T15:09:27.470Z,85.71
2017-12-21T15:12:01.955Z,86.40
2017-12-21T15:14:37.472Z,86.66
2017-12-21T15:17:11.954Z,87.02
2017-12-21T15:19:46.682Z,86.70
2017-12-21T15:22:21.539Z,87.03
2017-12-21T15:24:56.954Z,86.91
2017-12-21T15:27:31.719Z,87.59
2017-12-21T15:30:06.226Z,87.56
2017-12-21T15:32:40.594Z,87.41
2017-12-21T15:35:15.057Z,87.88
2017-12-21T15:37:49.406Z,87.99
2017-12-21T15:40:24.222Z,88.18
2017-12-21T15:42:58.618Z,88.29
2017-12-21T15:45:33.947Z,88.30
2017-12-21T15:48:08.587Z,88.51
2017-12-21T15:50:42.822Z,88.10
2017-12-21T15:53:17.584Z,87.68
2017-12-21T15:55:52.055Z,88.58
2017-12-21T15:58:26.600Z,88.18
2017-12-21T16:01:01.245Z,88.27
2017-12-21T16:03:35.756Z,88.37
2017-12-21T16:06:10.130Z,87.57
2017-12-21T16:08:45.132Z,88.46
2017-12-21T16:11:19.848Z,87.78
2017-12-21T16:13:54.330Z,87.69
2017-12-21T16:16:30.078Z,87.74
2017-12-21T16:19:04.314Z,87.48
2017-12-21T16:21:38.855Z,87.79
2017-12-21T16:24:13.364Z,87.13
2017-12-21T16:26:47.777Z,87.38
2017-12-21T16:29:22.262Z,87.22
2017-12-21T16:31:56.678Z,87.47
2017-12-21T16:34:31.226Z,87.37
2017-12-21T16:37:05.710Z,87.68
2017-12-21T16:39:40.314Z,87.66
2017-12-21T16:42:14.803Z,87.66
2017-12-21T16:44:49.375Z,87.68
2017-12-21T16:47:23.730Z,87.18
2017-12-21T16:49:58.893Z,87.78
2017-12-21T16:52:33.174Z,87.93
2017-12-21T16:55:07.653Z,87.96
2017-12-21T16:57:42.154Z,87.64
2017-12-21T17:00:17.786Z,88.38
2017-12-21T17:02:52.273Z,89.01
2017-12-21T17:05:26.688Z,88.61
2017-12-21T17:08:01.232Z,88.09
2017-12-21T17:10:35.710Z,88.77
2017-12-21T17:13:10.398Z,88.57
2017-12-21T17:15:44.810Z,89.06
2017-12-21T17:18:19.334Z,88.57
2017-12-21T17:20:53.787Z,88.17
2017-12-21T17:23:27.981Z,88.60
2017-12-21T17:26:02.060Z,88.35
2017-12-21T17:28:36.550Z,88.40
2017-12-21T17:31:11.010Z,89.47
2017-12-21T17:33:46.194Z,88.59
2017-12-21T17:36:20.782Z,89.62
2017-12-21T17:38:55.581Z,88.99
2017-12-21T17:41:30.751Z,89.01
2017-12-21T17:44:06.427Z,88.93
2017-12-21T17:46:40.997Z,89.76
2017-12-21T17:49:15.562Z,89.59
2017-12-21T17:51:50.073Z,89.58
2017-12-21T17:54:24.452Z,88.80
2017-12-21T17:56:58.563Z,89.54
2017-12-21T17:59:33.042Z,89.42
2017-12-21T18:02:07.529Z,89.16
2017-12-21T18:04:42.042Z,89.32
2017-12-21T18:07:16.406Z,90.16
2017-12-21T18:09:50.938Z,89.32
2017-12-21T18:12:25.318Z,89.47
2017-12-21T18:14:59.902Z,89.19
2017-12-21T18:17:34.286Z,89.13
2017-12-21T18:20:08.743Z,88.65
2017-12-21T18:22:43.287Z,88.27
2017-12-21T18:25:17.463Z,89.18
2017-12-21T18:27:51.985Z,89.12
2017-12-21T18:30:26.050Z,89.10
2017-12-21T18:33:00.543Z,88.61
2017-12-21T18:35:36.025Z,88.55
2017-12-21T18:38:10.790Z,88.15
2017-12-21T18:40:46.427Z,88.87
2017-12-21T18:43:20.966Z,88.73
2017-12-21T18:45:56.901Z,88.95
2017-12-21T18:48:31.910Z,89.06
2017-12-21T18:51:06.920Z,88.64
2017-12-21T18:53:41.647Z,88.87
2017-12-21T18:56:16.262Z,89.15
2017-12-21T18:58:50.754Z,89.35
2017-12-21T19:01:26.033Z,89.03
2017-12-21T19:04:01.776Z,88.94
2017-12-21T19:06:36.204Z,88.65
2017-12-21T19:09:11.216Z,88.93
2017-12-21T19:11:45.263Z,89.18
2017-12-21T19:14:20.398Z,88.84
2017-12-21T19:16:55.248Z,88.55
2017-12-21T19:19:29.469Z,87.90
2017-12-21T19:22:04.354Z,88.28
2017-12-21T19:24:39.373Z,87.88
2017-12-21T19:27:14.851Z,88.26
2017-12-21T19:29:49.664Z,87.88
2017-12-21T19:32:24.326Z,88.14
2017-12-21T19:35:00.940Z,87.89
2017-12-21T19:37:35.525Z,87.92
2017-12-21T19:40:10.585Z,88.36
2017-12-21T19:42:45.010Z,88.47
2017-12-21T19:45:19.628Z,88.33
2017-12-21T19:47:54.302Z,87.94
2017-12-21T19:50:29.749Z,87.93
2017-12-21T19:53:04.249Z,88.01
2017-12-21T19:55:38.654Z,87.91
2017-12-21T19:58:13.217Z,88.04
2017-12-21T20:00:48.411Z,88.19
2017-12-21T20:03:22.978Z,87.77
2017-12-21T20:05:57.802Z,87.91
2017-12-21T20:08:32.802Z,87.61
2017-12-21T20:11:07.337Z,87.49
2017-12-21T20:13:41.833Z,87.64
2017-12-21T20:16:16.234Z,87.73
2017-12-21T20:18:50.648Z,87.18
2017-12-21T20:21:25.031Z,87.58
2017-12-21T20:23:59.532Z,87.37
2017-12-21T20:26:33.978Z,87.68
2017-12-21T20:29:08.572Z,87.45
2017-12-21T20:31:43.877Z,87.66
2017-12-21T20:34:18.543Z,87.00
2017-12-21T20:36:59.134Z,86.60
2017-12-21T20:39:33.695Z,86.63
2017-12-21T20:42:08.083Z,86.62
2017-12-21T20:44:42.586Z,86.51
2017-12-21T20:47:18.878Z,86.51
2017-12-21T20:49:54.121Z,86.15
2017-12-21T20:52:32.390Z,86.26
2017-12-21T20:55:08.526Z,85.86
2017-12-21T20:57:43.880Z,85.66
2017-12-21T21:00:18.533Z,85.44
2017-12-21T21:02:53.145Z,85.16
2017-12-21T21:05:27.514Z,85.47
2017-12-21T21:08:02.046Z,85.23
2017-12-21T21:10:36.506Z,85.18
2017-12-21T21:13:11.172Z,85.33
2017-12-21T21:15:45.193Z,85.41
2017-12-21T21:18:19.381Z,84.74
2017-12-21T21:20:53.451Z,85.15
2017-12-21T21:23:28.032Z,85.32
2017-12-21T21:26:02.506Z,85.04
2017-12-21T21:28:37.162Z,85.28
2017-12-21T21:31:11.820Z,85.27
2017-12-21T21:33:46.389Z,85.40
2017-12-21T21:36:20.983Z,85.30
2017-12-21T21:38:55.493Z,85.00
2017-12-21T21:41:29.900Z,84.82
2017-12-21T21:44:03.930Z,85.04
2017-12-21T21:46:38.129Z,85.13
2017-12-21T21:49:12.938Z,85.09
2017-12-21T21:51:47.312Z,85.34
2017-12-21T21:54:21.788Z,85.42
2017-12-21T21:56:56.271Z,85.11
2017-12-21T21:59:30.797Z,85.11
2017-12-21T22:02:05.147Z,84.92
2017-12-21T22:04:39.652Z,85.12
2017-12-21T22:07:14.058Z,84.76
2017-12-21T22:09:48.486Z,84.94
2017-12-21T22:12:22.905Z,84.89
2017-12-21T22:14:57.497Z,85.01
2017-12-21T22:17:31.554Z,85.05
2017-12-21T22:20:10.474Z,84.80
2017-12-21T22:22:46.407Z,84.48
2017-12-21T22:25:23.418Z,84.57
2017-12-21T22:27:58.003Z,84.23
2017-12-21T22:30:32.357Z,84.13
2017-12-21T22:33:06.745Z,84.20
2017-12-21T22:35:41.205Z,84.39
2017-12-21T22:38:15.888Z,84.45
2017-12-21T22:40:50.451Z,84.20
2017-12-21T22:43:25.006Z,84.20
2017-12-21T22:45:59.499Z,84.33
2017-12-21T22:48:34.054Z,84.13
2017-12-21T22:51:08.511Z,84.22
2017-12-21T22:53:43.094Z,83.94
2017-12-21T22:56:17.685Z,84.40
2017-12-21T22:58:52.203Z,84.31
2017-12-21T23:01:27.245Z,84.33
2017-12-21T23:04:01.864Z,84.33
2017-12-21T23:06:36.278Z,84.13
2017-12-21T23:09:11.490Z,84.18
2017-12-21T23:11:46.038Z,84.39
2017-12-21T23:14:20.578Z,84.36
2017-12-21T23:16:54.998Z,84.25
2017-12-21T23:19:29.680Z,84.27
2017-12-21T23:22:04.046Z,84.03
2017-12-21T23:24:38.485Z,84.18
2017-12-21T23:27:12.859Z,84.19
2017-12-21T23:29:47.577Z,84.22
2017-12-21T23:32:22.114Z,83.98
2017-12-21T23:34:56.595Z,83.88
2017-12-21T23:37:31.010Z,83.69
2017-12-21T23:40:08.766Z,83.84
2017-12-21T23:42:43.151Z,83.79
2017-12-21T23:45:17.194Z,83.79
2017-12-21T23:47:51.890Z,83.76
2017-12-21T23:50:26.260Z,83.54
2017-12-21T23:53:00.434Z,83.76
2017-12-21T23:55:34.331Z,83.87
2017-12-21T23:58:09.880Z,84.01
